KSQI/SQI METAR and TAF weather

Enter ICAO airport designator
Station Type Date Time Source
KSQI METAR 2020/09/20 05:56 UTC NOAA

KSQI 200556Z AUTO 09004KT 10SM CLR 07/06 A3034 RMK AO2 SLP138 T00720056 10161 20067 402000044 53011


Station Type Date Time Source
KSQI Decoded METAR 2020/09/20 05:56 UTC NOAA

Sterling Rockfalls, IL, United States (KSQI) 41-45N 089-40W
Sep 20, 2020 - 01:56 AM EDT / 2020.09.20 0556 UTC
Wind: from the E (090 degrees) at 5 MPH (4 KT):0
Visibility: 10 mile(s):0
Sky conditions: clear
Temperature: 45.0 F (7.2 C)
Dew Point: 42.1 F (5.6 C)
Relative Humidity: 89%
Pressure (altimeter): 30.34 in. Hg (1027 hPa)
Pressure tendency: 0.03 inches (1.1 hPa) higher than three hours ago
ob: KSQI 200556Z AUTO 09004KT 10SM CLR 07/06 A3034 RMK AO2 SLP138 T00720056 10161 20067 402000044 53011
cycle: 6

Station Type Date Time Source
KSQI TAF UTC NOAA

Error!

Example: see airport list